OIAI  Shahid Asyaee Airport

Add Bookmark

Iran

Status
Operational
Latitude Longitude
32° 0' 8" N 49° 16' 13" E
32.002399 49.270401
Local (DST + 5) UTC (GMT + 4)
Sep 3, 2014 06:35 Sep 3, 2014 02:05
Sunrise-Sunset Local UTC
Begin Civil Twilight 06:23 01:53
Sunrise 06:48 02:18
Sunset 07:36 15:06
End Civil Twilight 08:00 15:30

Current Weather

METAR Observed VFR
OIAI 030100Z 15004KT CAVOK 33/09 Q1002 Wed, Sep 3, 2014 @ 01:00 UTC
(1 Hour, 5 Minutes ago)
Visual Flight Rules
Wind Visibility Clouds Conditions
150° at 4 knots (7 kph) 10 km or more
  • Clear skies
  • No significant weather
Temperatures Readings Precipitation
Current Temp 33°C (91°F)
Dewpoint 9°C (48°F)
Humidity 23%
Altimeter 29.59"Hg
Sea Level Pressure 1002mb
Field Elevation 1220.47'
None Recorded

Additional weather within a 92.6km radius of OIAI

Map ICAO Location
OIAW 88.2km S (213°)

24 Hour Weather History

Loading
-

24 Hour Weather Graphs

Loading
-

CheckWX.com is intended as a tool to help pilots better visualize weather data. It is not intended as a substitute for an official weather briefing obtained from a Flight Service Station. CheckWX.com does not meet the FAA requirements for an official pre-flight weather briefing. Therefore, it's important that pilots still call and obtain an official FSS pre-flight weather briefing.